Terminal Aerodrome Forecast
Issued by NWS Charleston, WV

Current Version | Previous Version | Text Only | Print | Product List | Glossary On
Versions: 1 2 3 4 5 6 7 8 9 10 11 12 13 14 15 16 17 18 19 20 21 22 23
000
FTUS41 KRLX 220200 AAA
TAFCRW
TAF AMD
KCRW 220238Z 2203/2224 24009KT P6SM SCT080
     FM220500 22008KT P6SM BKN060
     FM221300 24011G20KT 6SM SHRA BKN035
     FM221500 26011G19KT 3SM SHRA OVC015
     FM221900 26012G21KT P6SM BKN040=

USA.gov is the U.S. government's official web portal to all federal, state and local government web resources and services.